Latest Weather Observations for Dum In Mirrie

IDD60901

Issued at 8:21 pm CST Monday 20 February 2017 (issued every 10 minutes, with the page automatically refreshed every 10 minutes)

About weather observations | Map of Darwin area stations | Latest observations for Darwin area | Other Formats
Station Details ID: 014277 Name: DUM IN MIRRIE AIRSTRIP Lat: -12.63 Lon: 130.37 Height: 3.5 m
Data from the previous 72 hours. | See also: Recent months at Dum In Mirrie
Date/Time
CST
Temp
°C
App
Temp
°C
Dew
Point
°C
Rel
Hum
%
Delta-T
°C
Wind Press
QNH
hPa
Press
MSL
hPa
Rain since
9am
mm
Dir  Spd
km/h
Gust
km/h
Spd
kts
Gust
kts
20/08:00pm 29.3 34.4 24.6 76 3.3 W 6 11 3 6 1008.3 1008.3 0.0
20/07:30pm 29.3 34.1 24.2 74 3.5 W 6 11 3 6 1007.8 1007.8 0.0
20/07:00pm 29.7 34.4 24.3 73 3.8 W 7 13 4 7 1007.3 1007.3 0.0
20/06:30pm 30.5 34.4 24.2 69 4.4 W 11 17 6 9 1007.0 1007.0 0.0
20/06:00pm 31.0 35.3 24.9 70 4.3 W 11 19 6 10 1006.6 1006.6 0.0
20/05:30pm 31.4 36.0 25.3 70 4.3 W 11 19 6 10 1006.2 1006.2 0.0
20/05:00pm 31.1 34.4 24.5 68 4.6 W 15 20 8 11 1005.9 1005.9 0.0
20/04:30pm 31.5 36.4 25.8 72 4.1 W 11 17 6 9 1005.9 1005.9 0.0
20/04:00pm 31.6 37.1 26.8 75 3.5 WNW 11 17 6 9 1005.9 1005.9 0.0
20/03:30pm 31.6 37.4 26.6 75 3.6 WNW 9 15 5 8 1006.2 1006.2 0.0
20/03:00pm 31.3 36.9 26.3 75 3.6 WNW 9 15 5 8 1006.5 1006.5 0.0
20/02:30pm 30.9 36.2 25.9 74 3.6 NW 9 15 5 8 1006.8 1006.8 0.0
20/02:00pm 30.6 36.1 26.1 77 3.2 WNW 9 17 5 9 1007.0 1007.0 0.0
20/01:30pm 31.0 37.4 26.9 79 3.0 NW 7 15 4 8 1007.3 1007.3 0.0
20/01:00pm 30.3 36.4 26.5 80 2.7 WNW 7 15 4 8 1007.8 1007.8 0.0
20/12:30pm 30.7 36.6 26.2 77 3.2 W 7 13 4 7 1008.2 1008.2 0.0
20/12:00pm 30.1 35.4 25.2 75 3.5 W 7 11 4 6 1008.4 1008.4 0.0
20/11:30am 29.3 34.1 24.4 75 3.4 WSW 7 9 4 5 1008.8 1008.8 0.0
20/11:00am 29.4 34.4 23.8 72 3.9 SW 4 6 2 3 1009.2 1009.2 0.0
20/10:30am 29.5 34.6 24.1 72 3.8 WSW 4 6 2 3 1009.5 1009.5 0.0
20/10:00am 29.3 35.1 24.0 73 3.7 CALM 0 0 0 0 1009.4 1009.4 0.0
20/09:30am 28.9 34.5 23.6 73 3.7 CALM 0 0 0 0 1009.4 1009.4 0.0
20/09:00am 27.5 32.8 23.7 80 2.6 NE 2 4 1 2 1009.4 1009.4 6.6
20/08:30am 26.1 31.5 23.2 84 2.0 CALM 0 0 0 0 1009.0 1009.0 6.6
20/08:00am 25.1 30.7 23.5 91 1.1 CALM 0 0 0 0 1008.9 1008.9 6.6
20/07:30am 24.4 29.8 23.2 93 0.8 CALM 0 0 0 0 1008.7 1008.7 6.6
20/07:00am 24.2 29.4 22.8 92 0.9 CALM 0 0 0 0 1008.3 1008.3 6.6
20/06:30am 24.1 28.0 22.5 91 1.1 E 6 7 3 4 1007.9 1007.9 6.6
20/06:00am 24.8 29.3 22.3 86 1.7 SSE 2 7 1 4 1007.5 1007.5 6.6
20/05:30am 25.0 28.9 22.5 86 1.7 SSW 6 11 3 6 1007.2 1007.2 6.6
20/05:00am 25.4 29.4 22.1 82 2.2 ESE 4 9 2 5 1007.5 1007.5 6.6
20/04:30am 23.9 27.1 21.6 87 1.5 WSW 7 24 4 13 1006.7 1006.7 6.6
20/04:00am 23.0 24.8 21.1 89 1.2 S 13 28 7 15 1007.7 1007.7 5.4
20/03:30am 27.1 29.5 20.9 69 4.1 SE 9 17 5 9 1007.3 1007.3 0.0
20/03:00am 28.3 31.3 25.3 84 2.1 W 19 30 10 16 1006.7 1006.7 0.0
20/02:30am 28.1 32.1 25.1 84 2.1 W 13 22 7 12 1006.6 1006.6 0.0
20/02:00am 28.2 30.9 25.0 83 2.2 W 20 30 11 16 1007.0 1007.0 0.0
20/01:30am 28.2 31.2 25.6 86 1.8 W 20 32 11 17 1007.6 1007.6 0.0
20/01:00am 28.3 31.6 25.7 86 1.8 WSW 19 30 10 16 1007.9 1007.9 0.0
20/12:30am 28.4 32.9 25.8 86 1.8 WSW 13 26 7 14 1008.1 1008.1 0.0
20/12:00am 28.4 33.8 26.0 87 1.7 WSW 9 20 5 11 1008.2 1008.2 0.0
 
Date/Time
CST
Temp
°C
App
Temp
°C
Dew
Point
°C
Rel
Hum
%
Delta-T
°C
Wind Press
QNH
hPa
Press
MSL
hPa
Rain since
9am
mm
Dir  Spd
km/h
Gust
km/h
Spd
kts
Gust
kts
19/11:30pm 28.4 33.8 26.0 87 1.7 WSW 9 20 5 11 1008.2 1008.2 0.0
19/11:00pm 28.5 34.7 26.3 88 1.6 SW 6 15 3 8 1008.3 1008.3 0.0
19/10:30pm 28.4 34.2 26.0 87 1.7 SW 7 20 4 11 1008.3 1008.3 0.0
19/10:00pm 28.4 34.3 26.2 88 1.6 SW 7 20 4 11 1008.1 1008.1 0.0
19/09:30pm 28.5 34.5 26.3 88 1.6 SW 7 15 4 8 1007.6 1007.6 0.0
19/09:00pm 28.5 34.0 26.1 87 1.7 SW 9 19 5 10 1007.3 1007.3 0.0
19/08:30pm 28.5 34.2 25.9 86 1.8 SW 7 17 4 9 1007.1 1007.1 0.0
19/08:00pm 28.6 33.7 25.6 84 2.1 SW 9 20 5 11 1006.9 1006.9 0.0
19/07:30pm 28.6 34.2 25.8 85 2.0 WSW 7 19 4 10 1006.5 1006.5 0.0
19/07:00pm 28.6 33.9 25.8 85 2.0 SW 9 19 5 10 1006.1 1006.1 0.0
19/06:30pm 28.6 34.3 25.6 84 2.1 WSW 6 17 3 9 1005.6 1005.6 0.0
19/06:00pm 28.8 34.2 25.4 82 2.4 SW 7 17 4 9 1005.6 1005.6 0.0
19/05:30pm 28.9 34.1 25.1 80 2.7 SW 7 15 4 8 1005.5 1005.5 0.0
19/05:00pm 28.9 33.9 24.5 77 3.1 WSW 6 13 3 7 1005.4 1005.4 0.0
19/04:30pm 29.4 33.9 23.6 71 4.0 WSW 6 15 3 8 1005.3 1005.3 0.0
19/04:00pm 29.7 32.8 23.6 69 4.2 SW 13 24 7 13 1005.9 1005.9 0.0
19/03:30pm 30.1 34.8 24.3 71 4.0 SW 7 13 4 7 1005.8 1005.8 0.0
19/03:00pm 29.2 31.4 23.9 73 3.7 W 19 28 10 15 1005.5 1005.5 0.0
19/02:30pm 29.3 31.5 24.0 73 3.7 W 19 28 10 15 1005.9 1005.9 0.0
19/02:00pm 29.2 31.6 23.6 72 3.9 W 17 28 9 15 1006.4 1006.4 0.0
19/01:30pm 29.1 32.6 24.2 75 3.4 WSW 13 28 7 15 1007.0 1007.0 0.0
19/01:00pm 29.8 34.4 24.7 74 3.6 WSW 9 20 5 11 1007.6 1007.6 0.0
19/12:30pm 29.8 34.2 24.4 73 3.8 WSW 9 20 5 11 1008.1 1008.1 0.0
19/12:00pm 29.6 33.6 23.8 71 4.0 W 9 17 5 9 1008.5 1008.5 0.0
19/11:30am 29.5 33.6 24.6 75 3.4 W 11 19 6 10 1008.8 1008.8 0.0
19/11:00am 28.9 33.7 24.5 77 3.1 WNW 7 13 4 7 1008.8 1008.8 0.0
19/10:30am 29.2 33.9 25.0 78 2.9 W 9 15 5 8 1009.0 1009.0 0.0
19/10:00am 29.4 34.4 25.4 79 2.8 NW 9 15 5 8 1008.8 1008.8 0.0
19/09:30am 29.1 34.2 25.5 81 2.5 WNW 9 17 5 9 1008.8 1008.8 0.0
19/09:00am 29.2 34.1 25.8 82 2.4 WNW 11 20 6 11 1008.5 1008.5 0.0
19/08:30am 29.0 33.7 25.6 82 2.4 WNW 11 22 6 12 1008.4 1008.4 0.0
19/08:00am 28.7 33.5 25.7 84 2.1 W 11 22 6 12 1008.0 1008.0 0.0
19/07:30am 28.5 32.9 25.1 82 2.4 W 11 20 6 11 1008.3 1008.3 0.0
19/07:00am 28.3 33.1 25.1 83 2.2 W 9 20 5 11 1007.9 1007.9 0.0
19/06:30am 28.2 33.1 25.2 84 2.1 W 9 20 5 11 1007.3 1007.3 0.0
19/06:00am 28.3 32.3 25.1 83 2.2 W 13 22 7 12 1007.6 1007.6 0.0
19/05:30am 28.3 32.3 25.1 83 2.2 W 13 22 7 12 1007.2 1007.2 0.0
19/05:00am 28.4 32.5 25.2 83 2.2 W 13 26 7 14 1007.3 1007.3 0.0
19/04:30am 28.3 32.9 25.3 84 2.1 W 11 20 6 11 1006.9 1006.9 0.0
19/04:00am 28.3 32.3 25.1 83 2.2 W 13 22 7 12 1006.7 1006.7 0.0
19/03:30am 28.4 32.9 25.2 83 2.2 WNW 11 22 6 12 1007.0 1007.0 0.0
19/03:00am 28.4 32.5 25.2 83 2.2 W 13 20 7 11 1007.4 1007.4 0.0
19/02:30am 28.5 32.8 25.5 84 2.1 W 13 26 7 14 1007.5 1007.5 0.0
19/02:00am 28.5 32.3 25.3 83 2.2 WNW 15 24 8 13 1007.5 1007.5 0.0
19/01:30am 28.4 32.6 25.4 84 2.1 W 13 22 7 12 1008.0 1008.0 0.0
19/01:00am 28.5 32.7 25.3 83 2.2 W 13 24 7 13 1008.7 1008.7 0.0
19/12:30am 28.5 32.8 24.9 81 2.5 W 11 22 6 12 1008.9 1008.9 0.0
19/12:00am 28.5 32.8 24.9 81 2.5 W 11 20 6 11 1009.3 1009.3 0.0
 
Date/Time
CST
Temp
°C
App
Temp
°C
Dew
Point
°C
Rel
Hum
%
Delta-T
°C
Wind Press
QNH
hPa
Press
MSL
hPa
Rain since
9am
mm
Dir  Spd
km/h
Gust
km/h
Spd
kts
Gust
kts
18/11:30pm 28.6 33.1 25.2 82 2.4 W 11 20 6 11 1009.4 1009.4 0.0
18/11:00pm 28.7 32.9 25.3 82 2.4 W 13 20 7 11 1009.5 1009.5 0.0
18/10:30pm 28.6 33.1 25.2 82 2.4 W 11 20 6 11 1009.1 1009.1 0.0
18/10:00pm 28.6 32.3 24.6 79 2.8 W 13 24 7 13 1008.9 1008.9 0.0
18/09:30pm 28.6 32.6 25.0 81 2.5 W 13 22 7 12 1008.6 1008.6 0.0
18/09:00pm 28.7 33.3 25.3 82 2.4 W 11 20 6 11 1008.1 1008.1 0.0
18/08:30pm 28.7 32.2 24.9 80 2.7 W 15 26 8 14 1008.0 1008.0 0.0
18/08:00pm 28.8 32.7 24.8 79 2.8 W 13 26 7 14 1007.4 1007.4 0.0
18/07:30pm 28.9 31.6 24.7 78 2.9 W 19 30 10 16 1007.4 1007.4 0.0
18/07:00pm 29.1 31.4 25.1 79 2.8 W 22 30 12 16 1007.3 1007.3 0.0
18/06:30pm 29.5 32.5 25.5 79 2.8 WSW 20 32 11 17 1007.2 1007.2 0.0
18/06:00pm 29.8 32.6 25.8 79 2.8 W 22 33 12 18 1007.0 1007.0 0.0
18/05:30pm 29.7 33.2 25.4 78 3.0 WSW 17 30 9 16 1007.3 1007.3 0.0
18/05:00pm 30.3 33.3 25.6 76 3.3 W 20 30 11 16 1007.2 1007.2 0.0
18/04:30pm 30.2 33.6 25.3 75 3.5 W 17 28 9 15 1007.3 1007.3 0.0
18/04:00pm 30.3 35.2 25.8 77 3.2 WSW 11 24 6 13 1007.4 1007.4 0.0
18/03:30pm 30.1 34.5 25.6 77 3.2 WSW 13 19 7 10 1007.3 1007.3 0.0
18/03:00pm 30.0 32.8 24.9 74 3.6 WSW 19 28 10 15 1007.3 1007.3 0.0
18/02:30pm 29.9 33.6 25.2 76 3.3 WSW 15 28 8 15 1007.5 1007.5 0.0
18/02:00pm 30.1 34.3 25.4 76 3.3 WSW 13 30 7 16 1007.7 1007.7 0.0
18/01:30pm 31.1 36.7 25.7 73 3.8 WSW 7 17 4 9 1008.1 1008.1 0.0
18/01:00pm 30.5 35.0 25.8 76 3.3 WSW 13 28 7 15 1008.4 1008.4 0.0
18/12:30pm 30.5 35.4 25.3 74 3.7 WSW 9 20 5 11 1008.9 1008.9 0.0
18/12:00pm 30.8 35.1 24.9 71 4.2 WSW 11 22 6 12 1009.5 1009.5 0.0
18/11:30am 30.8 35.7 25.8 74 3.6 WSW 11 20 6 11 1009.9 1009.9 0.0
18/11:00am 30.1 33.5 25.2 75 3.5 WSW 17 30 9 16 1010.3 1010.3 0.0
18/10:30am 30.2 34.8 25.3 75 3.5 WSW 11 24 6 13 1010.6 1010.6 0.0
18/10:00am 29.6 32.5 25.1 77 3.2 WSW 19 30 10 16 1010.6 1010.6 0.0
18/09:30am 29.4 33.9 25.2 78 3.0 W 11 24 6 13 1010.1 1010.1 0.0
18/09:00am 29.3 33.7 25.1 78 3.0 W 11 20 6 11 1010.3 1010.3 0.0
18/08:30am 29.3 33.9 25.3 79 2.8 W 11 20 6 11 1010.0 1010.0 0.0
18/08:00am 28.5 32.4 24.9 81 2.5 WNW 13 22 7 12 1009.5 1009.5 0.0
18/07:30am 28.4 32.8 25.0 82 2.4 WNW 11 19 6 10 1009.2 1009.2 0.0
18/07:00am 28.2 32.1 24.8 82 2.4 W 13 20 7 11 1008.9 1008.9 0.0
18/06:30am 28.1 32.2 24.5 81 2.5 W 11 20 6 11 1008.6 1008.6 0.0
18/06:00am 28.1 31.8 24.5 81 2.5 WNW 13 24 7 13 1008.5 1008.5 0.0
18/05:30am 28.2 31.7 24.8 82 2.4 W 15 30 8 16 1008.4 1008.4 0.0
18/05:00am 28.2 31.7 24.8 82 2.4 W 15 30 8 16 1008.5 1008.5 0.0
18/04:30am 28.2 31.7 24.8 82 2.4 W 15 26 8 14 1008.6 1008.6 0.0
18/04:00am 28.3 31.3 24.7 81 2.5 W 17 30 9 16 1008.8 1008.8 0.0
18/03:30am 28.1 32.2 24.5 81 2.5 W 11 22 6 12 1008.7 1008.7 0.0
18/03:00am 28.2 31.9 24.6 81 2.5 W 13 24 7 13 1008.7 1008.7 0.0
18/02:30am 28.2 32.2 24.4 80 2.6 W 11 20 6 11 1009.0 1009.0 0.0
18/02:00am 28.1 32.5 24.5 81 2.5 W 9 19 5 10 1009.0 1009.0 0.0
18/01:30am 28.2 32.2 24.4 80 2.6 W 11 22 6 12 1009.4 1009.4 0.0
18/01:00am 28.2 32.6 24.4 80 2.6 W 9 17 5 9 1009.8 1009.8 0.0
18/12:30am 28.4 31.6 24.4 79 2.8 W 15 22 8 12 1010.1 1010.1 0.0
18/12:00am 28.5 32.8 24.9 81 2.5 W 11 24 6 13 1010.6 1010.6 0.0
 
Date/Time
CST
Temp
°C
App
Temp
°C
Dew
Point
°C
Rel
Hum
%
Delta-T
°C
Wind Press
QNH
hPa
Press
MSL
hPa
Rain since
9am
mm
Dir  Spd
km/h
Gust
km/h
Spd
kts
Gust
kts
17/11:30pm 28.7 32.9 24.7 79 2.8 WSW 11 20 6 11 1011.0 1011.0 0.0
17/11:00pm 28.6 31.6 24.6 79 2.8 W 17 24 9 13 1011.1 1011.1 0.0
17/10:30pm 28.7 31.5 24.9 80 2.7 W 19 26 10 14 1010.7 1010.7 0.0
17/10:00pm 28.7 31.6 24.5 78 2.9 W 17 26 9 14 1010.2 1010.2 0.0
17/09:30pm 28.7 31.6 24.5 78 2.9 WSW 17 28 9 15 1009.6 1009.6 0.0
17/09:00pm 28.7 31.5 24.9 80 2.7 W 19 30 10 16 1009.6 1009.6 0.0
17/08:30pm 28.7 31.5 24.3 77 3.1 W 17 26 9 14 1009.6 1009.6 0.0

Latest Capital City Observations: Canberra | Sydney | Melbourne | Brisbane | Adelaide | Perth | Hobart | Darwin

Other Formats:

Comma delimited format used in spreadsheet applications
http://www.bom.gov.au/fwo/IDD60901/IDD60901.94116.axf

JavaScript Object Notation format (JSON) in row-major order
http://www.bom.gov.au/fwo/IDD60901/IDD60901.94116.json